Terminal Aerodrome Forecast
Issued by NWS Quad Cities IA IL

Home | Current Version | Previous Version | Text Only | Print | Product List | Glossary On
Versions: 1 2 3 4 5 6 7 8 9 10 11 12 13 14 15 16 17 18 19
000
FTUS43 KDVN 241130
TAFDBQ
TAF
KDBQ 241130Z 2412/2512 13006KT P6SM VCSH OVC070
      TEMPO 2412/2414 5SM -SHRA BKN040
     FM241400 15012KT P6SM OVC050
     FM241900 14011KT P6SM VCSH SCT040 OVC080
      TEMPO 2419/2422 5SM -SHRA OVC035
     FM242200 13012KT P6SM VCSH OVC040
     FM250300 11014KT 5SM -RA BKN035 OVC050
     FM250600 11011KT 3SM -RA OVC015=

USA.gov is the U.S. government's official web portal to all federal, state and local government web resources and services.